sensor_id;sensor_type;location;lat;lon;timestamp;pressure;altitude;pressure_sealevel;temperature;humidity
22333;BME280;11334;36.986;-121.936;2024-02-14T00:00:13;101155.69;;;17.74;74.28
22333;BME280;11334;36.986;-121.936;2024-02-14T00:02:41;101164.59;;;17.74;73.74
22333;BME280;11334;36.986;-121.936;2024-02-14T00:05:07;101157.81;;;17.58;72.79
22333;BME280;11334;36.986;-121.936;2024-02-14T00:07:36;101166.50;;;17.60;73.04
22333;BME280;11334;36.986;-121.936;2024-02-14T00:10:03;101158.63;;;17.58;72.39
22333;BME280;11334;36.986;-121.936;2024-02-14T00:12:33;101160.31;;;17.59;73.14
22333;BME280;11334;36.986;-121.936;2024-02-14T00:15:00;101155.31;;;17.56;74.14
22333;BME280;11334;36.986;-121.936;2024-02-14T00:17:27;101159.28;;;17.60;74.47
22333;BME280;11334;36.986;-121.936;2024-02-14T00:19:53;101163.19;;;17.58;73.87
22333;BME280;11334;36.986;-121.936;2024-02-14T00:22:20;101168.72;;;17.56;73.31
22333;BME280;11334;36.986;-121.936;2024-02-14T00:24:46;101159.03;;;17.55;72.66
22333;BME280;11334;36.986;-121.936;2024-02-14T00:27:13;101172.16;;;17.50;73.23
22333;BME280;11334;36.986;-121.936;2024-02-14T00:29:43;101168.84;;;17.48;73.29
22333;BME280;11334;36.986;-121.936;2024-02-14T00:32:12;101165.72;;;17.45;73.68
22333;BME280;11334;36.986;-121.936;2024-02-14T00:34:39;101178.56;;;17.49;74.32
22333;BME280;11334;36.986;-121.936;2024-02-14T00:37:06;101171.13;;;17.51;73.32
22333;BME280;11334;36.986;-121.936;2024-02-14T00:39:32;101170.69;;;17.48;72.19
22333;BME280;11334;36.986;-121.936;2024-02-14T00:41:59;101173.50;;;17.40;72.95
22333;BME280;11334;36.986;-121.936;2024-02-14T00:44:25;101173.03;;;17.37;73.48
22333;BME280;11334;36.986;-121.936;2024-02-14T00:46:58;101178.78;;;17.34;73.24
22333;BME280;11334;36.986;-121.936;2024-02-14T00:49:25;101170.88;;;17.26;72.99
22333;BME280;11334;36.986;-121.936;2024-02-14T00:51:52;101177.50;;;17.30;73.42
22333;BME280;11334;36.986;-121.936;2024-02-14T00:54:19;101184.91;;;17.28;73.70
22333;BME280;11334;36.986;-121.936;2024-02-14T00:56:46;101178.91;;;17.26;74.53
22333;BME280;11334;36.986;-121.936;2024-02-14T00:59:13;101180.09;;;17.23;75.00
22333;BME280;11334;36.986;-121.936;2024-02-14T01:01:41;101175.78;;;17.22;75.52
22333;BME280;11334;36.986;-121.936;2024-02-14T01:04:08;101174.31;;;17.20;75.10
22333;BME280;11334;36.986;-121.936;2024-02-14T01:06:34;101168.69;;;17.15;75.65
22333;BME280;11334;36.986;-121.936;2024-02-14T01:09:01;101175.88;;;17.14;75.38
22333;BME280;11334;36.986;-121.936;2024-02-14T01:11:33;101182.13;;;17.07;76.08
22333;BME280;11334;36.986;-121.936;2024-02-14T01:14:01;101174.47;;;17.04;76.59
22333;BME280;11334;36.986;-121.936;2024-02-14T01:16:27;101177.25;;;16.96;76.45
22333;BME280;11334;36.986;-121.936;2024-02-14T01:18:54;101183.81;;;16.94;76.65
22333;BME280;11334;36.986;-121.936;2024-02-14T01:21:20;101189.72;;;16.89;76.92
22333;BME280;11334;36.986;-121.936;2024-02-14T01:23:47;101187.81;;;16.83;77.06
22333;BME280;11334;36.986;-121.936;2024-02-14T01:26:14;101181.06;;;16.73;77.47
22333;BME280;11334;36.986;-121.936;2024-02-14T01:28:40;101201.00;;;16.71;78.00
22333;BME280;11334;36.986;-121.936;2024-02-14T01:31:09;101204.22;;;16.66;78.31
22333;BME280;11334;36.986;-121.936;2024-02-14T01:33:38;101198.13;;;16.58;78.68
22333;BME280;11334;36.986;-121.936;2024-02-14T01:36:06;101210.59;;;16.51;79.26
22333;BME280;11334;36.986;-121.936;2024-02-14T01:38:32;101209.81;;;16.43;79.84
22333;BME280;11334;36.986;-121.936;2024-02-14T01:41:03;101219.25;;;16.39;80.01
22333;BME280;11334;36.986;-121.936;2024-02-14T01:43:31;101219.13;;;16.32;80.79
22333;BME280;11334;36.986;-121.936;2024-02-14T01:46:06;101227.22;;;16.24;81.71
22333;BME280;11334;36.986;-121.936;2024-02-14T01:48:36;101226.28;;;16.17;81.66
22333;BME280;11334;36.986;-121.936;2024-02-14T01:51:06;101224.47;;;16.10;82.26
22333;BME280;11334;36.986;-121.936;2024-02-14T01:53:36;101226.56;;;16.00;82.90
22333;BME280;11334;36.986;-121.936;2024-02-14T01:56:06;101229.16;;;15.94;83.27
22333;BME280;11334;36.986;-121.936;2024-02-14T01:58:34;101229.47;;;15.91;83.99
22333;BME280;11334;36.986;-121.936;2024-02-14T02:01:01;101235.25;;;15.80;84.39
22333;BME280;11334;36.986;-121.936;2024-02-14T02:03:31;101238.44;;;15.76;85.49
22333;BME280;11334;36.986;-121.936;2024-02-14T02:06:01;101236.66;;;15.68;86.24
22333;BME280;11334;36.986;-121.936;2024-02-14T02:08:28;101249.19;;;15.68;86.82
22333;BME280;11334;36.986;-121.936;2024-02-14T02:10:55;101240.06;;;15.62;87.66
22333;BME280;11334;36.986;-121.936;2024-02-14T02:13:21;101236.59;;;15.54;87.89
22333;BME280;11334;36.986;-121.936;2024-02-14T02:15:48;101249.00;;;15.47;88.38
22333;BME280;11334;36.986;-121.936;2024-02-14T02:18:16;101256.72;;;15.42;88.94
22333;BME280;11334;36.986;-121.936;2024-02-14T02:20:43;101246.91;;;15.35;89.62
22333;BME280;11334;36.986;-121.936;2024-02-14T02:23:11;101255.44;;;15.30;90.09
22333;BME280;11334;36.986;-121.936;2024-02-14T02:25:43;101254.09;;;15.26;90.30
22333;BME280;11334;36.986;-121.936;2024-02-14T02:28:14;101250.28;;;15.21;90.75
22333;BME280;11334;36.986;-121.936;2024-02-14T02:30:41;101249.97;;;15.16;90.79
22333;BME280;11334;36.986;-121.936;2024-02-14T02:33:09;101248.50;;;15.14;91.14
22333;BME280;11334;36.986;-121.936;2024-02-14T02:35:37;101250.34;;;15.05;91.42
22333;BME280;11334;36.986;-121.936;2024-02-14T02:38:05;101255.16;;;15.02;91.79
22333;BME280;11334;36.986;-121.936;2024-02-14T02:40:32;101255.88;;;14.96;91.89
22333;BME280;11334;36.986;-121.936;2024-02-14T02:42:58;101259.72;;;14.93;92.16
22333;BME280;11334;36.986;-121.936;2024-02-14T02:45:26;101263.91;;;14.88;92.38
22333;BME280;11334;36.986;-121.936;2024-02-14T02:47:56;101248.09;;;14.79;92.75
22333;BME280;11334;36.986;-121.936;2024-02-14T02:50:22;101252.59;;;14.78;92.81
22333;BME280;11334;36.986;-121.936;2024-02-14T02:52:49;101265.63;;;14.73;92.97
22333;BME280;11334;36.986;-121.936;2024-02-14T02:55:18;101255.63;;;14.67;93.60
22333;BME280;11334;36.986;-121.936;2024-02-14T02:57:44;101257.44;;;14.67;93.95
22333;BME280;11334;36.986;-121.936;2024-02-14T03:00:12;101261.28;;;14.64;93.71
22333;BME280;11334;36.986;-121.936;2024-02-14T03:02:39;101253.47;;;14.55;93.75
22333;BME280;11334;36.986;-121.936;2024-02-14T03:05:13;101269.66;;;14.53;93.96
22333;BME280;11334;36.986;-121.936;2024-02-14T03:07:46;101273.84;;;14.48;93.50
22333;BME280;11334;36.986;-121.936;2024-02-14T03:10:14;101279.16;;;14.40;93.52
22333;BME280;11334;36.986;-121.936;2024-02-14T03:12:48;101270.34;;;14.32;93.81
22333;BME280;11334;36.986;-121.936;2024-02-14T03:15:15;101269.31;;;14.33;93.79
22333;BME280;11334;36.986;-121.936;2024-02-14T03:17:42;101262.16;;;14.25;93.94
22333;BME280;11334;36.986;-121.936;2024-02-14T03:20:09;101268.84;;;14.22;94.34
22333;BME280;11334;36.986;-121.936;2024-02-14T03:22:42;101266.19;;;14.14;94.99
22333;BME280;11334;36.986;-121.936;2024-02-14T03:25:17;101272.50;;;14.13;94.74
22333;BME280;11334;36.986;-121.936;2024-02-14T03:27:44;101261.34;;;14.01;94.83
22333;BME280;11334;36.986;-121.936;2024-02-14T03:30:13;101265.00;;;14.00;95.05
22333;BME280;11334;36.986;-121.936;2024-02-14T03:32:43;101271.81;;;13.95;95.26
22333;BME280;11334;36.986;-121.936;2024-02-14T03:35:12;101266.97;;;13.83;95.43
22333;BME280;11334;36.986;-121.936;2024-02-14T03:37:42;101268.78;;;13.82;96.15
22333;BME280;11334;36.986;-121.936;2024-02-14T03:40:13;101275.44;;;13.78;96.76
22333;BME280;11334;36.986;-121.936;2024-02-14T03:42:40;101272.44;;;13.73;97.40
22333;BME280;11334;36.986;-121.936;2024-02-14T03:45:09;101275.59;;;13.69;97.38
22333;BME280;11334;36.986;-121.936;2024-02-14T03:47:36;101284.41;;;13.61;98.37
22333;BME280;11334;36.986;-121.936;2024-02-14T03:50:06;101272.91;;;13.61;98.56
22333;BME280;11334;36.986;-121.936;2024-02-14T03:52:33;101280.41;;;13.57;98.65
22333;BME280;11334;36.986;-121.936;2024-02-14T03:55:00;101279.03;;;13.54;98.94
22333;BME280;11334;36.986;-121.936;2024-02-14T03:57:27;101292.06;;;13.57;98.79
22333;BME280;11334;36.986;-121.936;2024-02-14T03:59:55;101280.38;;;13.50;99.30
22333;BME280;11334;36.986;-121.936;2024-02-14T04:02:24;101283.53;;;13.45;99.31
22333;BME280;11334;36.986;-121.936;2024-02-14T04:04:54;101286.50;;;13.42;99.20
22333;BME280;11334;36.986;-121.936;2024-02-14T04:07:20;101288.66;;;13.39;99.85
22333;BME280;11334;36.986;-121.936;2024-02-14T04:09:48;101285.84;;;13.40;99.49
22333;BME280;11334;36.986;-121.936;2024-02-14T04:12:14;101287.66;;;13.32;99.63
22333;BME280;11334;36.986;-121.936;2024-02-14T04:14:41;101288.47;;;13.32;99.18
22333;BME280;11334;36.986;-121.936;2024-02-14T04:17:07;101280.94;;;13.20;99.47
22333;BME280;11334;36.986;-121.936;2024-02-14T04:19:34;101287.56;;;13.16;99.55
22333;BME280;11334;36.986;-121.936;2024-02-14T04:22:00;101292.06;;;13.16;99.48
22333;BME280;11334;36.986;-121.936;2024-02-14T04:24:27;101285.38;;;13.12;99.80
22333;BME280;11334;36.986;-121.936;2024-02-14T04:26:53;101292.03;;;13.08;99.35
22333;BME280;11334;36.986;-121.936;2024-02-14T04:29:23;101293.00;;;13.07;99.91
22333;BME280;11334;36.986;-121.936;2024-02-14T04:31:50;101293.31;;;13.04;100.00
22333;BME280;11334;36.986;-121.936;2024-02-14T04:34:18;101299.47;;;13.04;100.00
22333;BME280;11334;36.986;-121.936;2024-02-14T04:36:45;101307.94;;;13.00;100.00
22333;BME280;11334;36.986;-121.936;2024-02-14T04:39:11;101316.06;;;12.98;100.00
22333;BME280;11334;36.986;-121.936;2024-02-14T04:41:38;101316.03;;;12.91;99.79
22333;BME280;11334;36.986;-121.936;2024-02-14T04:44:05;101310.34;;;12.86;100.00
22333;BME280;11334;36.986;-121.936;2024-02-14T04:46:34;101325.50;;;12.85;99.65
22333;BME280;11334;36.986;-121.936;2024-02-14T04:49:02;101331.94;;;12.83;99.95
22333;BME280;11334;36.986;-121.936;2024-02-14T04:51:31;101331.00;;;12.74;100.00
22333;BME280;11334;36.986;-121.936;2024-02-14T04:53:57;101328.81;;;12.70;100.00
22333;BME280;11334;36.986;-121.936;2024-02-14T04:56:27;101336.78;;;12.70;100.00
22333;BME280;11334;36.986;-121.936;2024-02-14T04:58:54;101335.13;;;12.69;100.00
22333;BME280;11334;36.986;-121.936;2024-02-14T05:01:23;101339.09;;;12.65;100.00
22333;BME280;11334;36.986;-121.936;2024-02-14T05:03:50;101338.94;;;12.66;100.00
22333;BME280;11334;36.986;-121.936;2024-02-14T05:06:16;101335.09;;;12.61;100.00
22333;BME280;11334;36.986;-121.936;2024-02-14T05:08:43;101334.72;;;12.56;100.00
22333;BME280;11334;36.986;-121.936;2024-02-14T05:11:09;101332.75;;;12.58;100.00
22333;BME280;11334;36.986;-121.936;2024-02-14T05:13:36;101333.66;;;12.49;100.00
22333;BME280;11334;36.986;-121.936;2024-02-14T05:16:04;101333.97;;;12.46;100.00
22333;BME280;11334;36.986;-121.936;2024-02-14T05:18:31;101335.63;;;12.47;100.00
22333;BME280;11334;36.986;-121.936;2024-02-14T05:21:05;101333.97;;;12.46;100.00
22333;BME280;11334;36.986;-121.936;2024-02-14T05:23:32;101333.28;;;12.44;100.00
22333;BME280;11334;36.986;-121.936;2024-02-14T05:25:58;101339.22;;;12.38;100.00
22333;BME280;11334;36.986;-121.936;2024-02-14T05:28:24;101334.38;;;12.34;100.00
22333;BME280;11334;36.986;-121.936;2024-02-14T05:30:51;101328.38;;;12.32;100.00
22333;BME280;11334;36.986;-121.936;2024-02-14T05:33:18;101330.28;;;12.22;100.00
22333;BME280;11334;36.986;-121.936;2024-02-14T05:35:51;101329.44;;;12.22;100.00
22333;BME280;11334;36.986;-121.936;2024-02-14T05:38:17;101342.03;;;12.20;100.00
22333;BME280;11334;36.986;-121.936;2024-02-14T05:40:47;101341.34;;;12.18;100.00
22333;BME280;11334;36.986;-121.936;2024-02-14T05:43:15;101340.69;;;12.16;100.00
22333;BME280;11334;36.986;-121.936;2024-02-14T05:45:41;101343.34;;;12.16;100.00
22333;BME280;11334;36.986;-121.936;2024-02-14T05:48:08;101344.63;;;12.12;100.00
22333;BME280;11334;36.986;-121.936;2024-02-14T05:50:34;101340.59;;;12.08;100.00
22333;BME280;11334;36.986;-121.936;2024-02-14T05:53:01;101341.91;;;12.04;100.00
22333;BME280;11334;36.986;-121.936;2024-02-14T05:55:28;101337.19;;;11.98;100.00
22333;BME280;11334;36.986;-121.936;2024-02-14T05:57:54;101344.94;;;11.92;100.00
22333;BME280;11334;36.986;-121.936;2024-02-14T06:00:21;101345.06;;;11.90;100.00
22333;BME280;11334;36.986;-121.936;2024-02-14T06:02:47;101345.38;;;11.87;100.00
22333;BME280;11334;36.986;-121.936;2024-02-14T06:05:14;101338.09;;;11.89;100.00
22333;BME280;11334;36.986;-121.936;2024-02-14T06:07:41;101341.06;;;11.86;100.00
22333;BME280;11334;36.986;-121.936;2024-02-14T06:10:12;101334.06;;;11.85;100.00
22333;BME280;11334;36.986;-121.936;2024-02-14T06:12:38;101343.47;;;11.80;100.00
22333;BME280;11334;36.986;-121.936;2024-02-14T06:15:09;101342.63;;;11.79;100.00
22333;BME280;11334;36.986;-121.936;2024-02-14T06:17:35;101339.59;;;11.74;100.00
22333;BME280;11334;36.986;-121.936;2024-02-14T06:20:02;101339.91;;;11.71;100.00
22333;BME280;11334;36.986;-121.936;2024-02-14T06:22:32;101342.56;;;11.71;100.00
22333;BME280;11334;36.986;-121.936;2024-02-14T06:24:59;101340.03;;;11.70;100.00
22333;BME280;11334;36.986;-121.936;2024-02-14T06:27:26;101341.88;;;11.69;100.00
22333;BME280;11334;36.986;-121.936;2024-02-14T06:29:53;101335.03;;;11.67;100.00
22333;BME280;11334;36.986;-121.936;2024-02-14T06:32:20;101345.25;;;11.62;100.00
22333;BME280;11334;36.986;-121.936;2024-02-14T06:34:46;101346.53;;;11.58;100.00
22333;BME280;11334;36.986;-121.936;2024-02-14T06:37:13;101342.34;;;11.56;100.00
22333;BME280;11334;36.986;-121.936;2024-02-14T06:39:39;101347.97;;;11.53;100.00
22333;BME280;11334;36.986;-121.936;2024-02-14T06:42:06;101351.75;;;11.50;100.00
22333;BME280;11334;36.986;-121.936;2024-02-14T06:44:32;101360.41;;;11.52;100.00
22333;BME280;11334;36.986;-121.936;2024-02-14T06:46:58;101359.00;;;11.48;100.00
22333;BME280;11334;36.986;-121.936;2024-02-14T06:49:24;101360.00;;;11.47;100.00
22333;BME280;11334;36.986;-121.936;2024-02-14T06:51:51;101368.94;;;11.46;100.00
22333;BME280;11334;36.986;-121.936;2024-02-14T06:54:17;101368.94;;;11.46;100.00
22333;BME280;11334;36.986;-121.936;2024-02-14T06:56:45;101378.31;;;11.41;100.00
22333;BME280;11334;36.986;-121.936;2024-02-14T06:59:11;101383.19;;;11.36;100.00
22333;BME280;11334;36.986;-121.936;2024-02-14T07:01:38;101382.38;;;11.35;100.00
22333;BME280;11334;36.986;-121.936;2024-02-14T07:04:04;101379.19;;;11.32;100.00
22333;BME280;11334;36.986;-121.936;2024-02-14T07:06:31;101385.75;;;11.28;100.00
22333;BME280;11334;36.986;-121.936;2024-02-14T07:08:57;101390.09;;;11.29;100.00
22333;BME280;11334;36.986;-121.936;2024-02-14T07:11:23;101383.41;;;11.25;100.00
22333;BME280;11334;36.986;-121.936;2024-02-14T07:13:50;101373.78;;;11.24;100.00
22333;BME280;11334;36.986;-121.936;2024-02-14T07:16:16;101382.88;;;11.22;100.00
22333;BME280;11334;36.986;-121.936;2024-02-14T07:18:43;101384.66;;;11.21;100.00
22333;BME280;11334;36.986;-121.936;2024-02-14T07:21:10;101370.44;;;11.22;100.00
22333;BME280;11334;36.986;-121.936;2024-02-14T07:23:36;101375.03;;;11.20;100.00
22333;BME280;11334;36.986;-121.936;2024-02-14T07:26:03;101372.13;;;11.14;100.00
22333;BME280;11334;36.986;-121.936;2024-02-14T07:28:29;101377.88;;;11.09;100.00
22333;BME280;11334;36.986;-121.936;2024-02-14T07:30:56;101372.84;;;11.06;100.00
22333;BME280;11334;36.986;-121.936;2024-02-14T07:33:22;101375.09;;;11.02;100.00
22333;BME280;11334;36.986;-121.936;2024-02-14T07:35:49;101375.66;;;11.05;100.00
22333;BME280;11334;36.986;-121.936;2024-02-14T07:38:16;101380.78;;;11.06;100.00
22333;BME280;11334;36.986;-121.936;2024-02-14T07:40:43;101377.47;;;11.04;100.00
22333;BME280;11334;36.986;-121.936;2024-02-14T07:43:09;101382.09;;;11.03;100.00
22333;BME280;11334;36.986;-121.936;2024-02-14T07:45:36;101380.69;;;10.99;100.00
22333;BME280;11334;36.986;-121.936;2024-02-14T07:48:02;101382.94;;;10.94;100.00
22333;BME280;11334;36.986;-121.936;2024-02-14T07:50:28;101384.06;;;10.91;100.00
22333;BME280;11334;36.986;-121.936;2024-02-14T07:52:55;101377.38;;;10.87;100.00
22333;BME280;11334;36.986;-121.936;2024-02-14T07:55:21;101372.09;;;10.87;100.00
22333;BME280;11334;36.986;-121.936;2024-02-14T07:57:48;101384.78;;;10.84;100.00
22333;BME280;11334;36.986;-121.936;2024-02-14T08:00:14;101383.09;;;10.83;100.00
22333;BME280;11334;36.986;-121.936;2024-02-14T08:02:49;101398.03;;;10.84;100.00
22333;BME280;11334;36.986;-121.936;2024-02-14T08:05:15;101395.53;;;10.82;100.00
22333;BME280;11334;36.986;-121.936;2024-02-14T08:07:41;101389.94;;;10.85;100.00
22333;BME280;11334;36.986;-121.936;2024-02-14T08:10:08;101389.94;;;10.85;100.00
22333;BME280;11334;36.986;-121.936;2024-02-14T08:12:35;101392.88;;;10.82;100.00
22333;BME280;11334;36.986;-121.936;2024-02-14T08:15:01;101390.38;;;10.81;100.00
22333;BME280;11334;36.986;-121.936;2024-02-14T08:17:30;101394.97;;;10.79;100.00
22333;BME280;11334;36.986;-121.936;2024-02-14T08:19:56;101397.47;;;10.80;100.00
22333;BME280;11334;36.986;-121.936;2024-02-14T08:22:23;101382.81;;;10.86;100.00
22333;BME280;11334;36.986;-121.936;2024-02-14T08:24:49;101396.06;;;10.86;100.00
22333;BME280;11334;36.986;-121.936;2024-02-14T08:27:15;101396.78;;;10.88;100.00
22333;BME280;11334;36.986;-121.936;2024-02-14T08:29:41;101394.66;;;10.82;100.00
22333;BME280;11334;36.986;-121.936;2024-02-14T08:32:08;101395.38;;;10.84;100.00
22333;BME280;11334;36.986;-121.936;2024-02-14T08:34:34;101378.22;;;10.78;100.00
22333;BME280;11334;36.986;-121.936;2024-02-14T08:37:00;101371.53;;;10.74;100.00
22333;BME280;11334;36.986;-121.936;2024-02-14T08:39:27;101364.28;;;10.76;100.00
22333;BME280;11334;36.986;-121.936;2024-02-14T08:41:53;101365.41;;;10.74;100.00
22333;BME280;11334;36.986;-121.936;2024-02-14T08:44:19;101367.09;;;10.75;100.00
22333;BME280;11334;36.986;-121.936;2024-02-14T08:46:46;101360.25;;;10.73;100.00
22333;BME280;11334;36.986;-121.936;2024-02-14T08:49:14;101369.44;;;10.78;100.00
22333;BME280;11334;36.986;-121.936;2024-02-14T08:51:40;101381.72;;;10.79;100.00
22333;BME280;11334;36.986;-121.936;2024-02-14T08:54:09;101375.28;;;10.81;100.00
22333;BME280;11334;36.986;-121.936;2024-02-14T08:56:37;101380.06;;;10.78;100.00
22333;BME280;11334;36.986;-121.936;2024-02-14T08:59:03;101374.75;;;10.78;100.00
22333;BME280;11334;36.986;-121.936;2024-02-14T09:01:32;101364.44;;;10.75;100.00
22333;BME280;11334;36.986;-121.936;2024-02-14T09:03:58;101361.22;;;10.72;100.00
22333;BME280;11334;36.986;-121.936;2024-02-14T09:06:25;101349.38;;;10.66;100.00
22333;BME280;11334;36.986;-121.936;2024-02-14T09:08:54;101357.63;;;10.73;100.00
22333;BME280;11334;36.986;-121.936;2024-02-14T09:11:20;101362.34;;;10.69;100.00
22333;BME280;11334;36.986;-121.936;2024-02-14T09:13:48;101366.69;;;10.70;100.00
22333;BME280;11334;36.986;-121.936;2024-02-14T09:16:19;101361.94;;;10.64;100.00
22333;BME280;11334;36.986;-121.936;2024-02-14T09:18:47;101367.66;;;10.60;100.00
22333;BME280;11334;36.986;-121.936;2024-02-14T09:21:14;101369.34;;;10.61;100.00
22333;BME280;11334;36.986;-121.936;2024-02-14T09:23:41;101371.00;;;10.62;100.00
22333;BME280;11334;36.986;-121.936;2024-02-14T09:26:08;101364.59;;;10.55;100.00
22333;BME280;11334;36.986;-121.936;2024-02-14T09:28:34;101375.47;;;10.61;100.00
22333;BME280;11334;36.986;-121.936;2024-02-14T09:31:01;101383.00;;;10.56;100.00
22333;BME280;11334;36.986;-121.936;2024-02-14T09:33:30;101373.94;;;10.59;100.00
22333;BME280;11334;36.986;-121.936;2024-02-14T09:35:56;101378.41;;;10.58;100.00
22333;BME280;11334;36.986;-121.936;2024-02-14T09:38:22;101376.16;;;10.63;100.00
22333;BME280;11334;36.986;-121.936;2024-02-14T09:40:53;101383.97;;;10.65;100.00
22333;BME280;11334;36.986;-121.936;2024-02-14T09:43:43;101381.59;;;10.71;100.00
22333;BME280;11334;36.986;-121.936;2024-02-14T09:46:13;101382.72;;;10.69;100.00
22333;BME280;11334;36.986;-121.936;2024-02-14T09:48:42;101375.16;;;10.73;100.00
22333;BME280;11334;36.986;-121.936;2024-02-14T09:51:09;101370.00;;;10.72;100.00
22333;BME280;11334;36.986;-121.936;2024-02-14T09:53:36;101371.81;;;10.72;100.00
22333;BME280;11334;36.986;-121.936;2024-02-14T09:56:03;101366.22;;;10.74;100.00
22333;BME280;11334;36.986;-121.936;2024-02-14T09:58:29;101377.69;;;10.75;100.00
22333;BME280;11334;36.986;-121.936;2024-02-14T10:00:59;101372.81;;;10.80;100.00
22333;BME280;11334;36.986;-121.936;2024-02-14T10:03:26;101374.88;;;10.86;100.00
22333;BME280;11334;36.986;-121.936;2024-02-14T10:05:52;101373.88;;;10.87;100.00
22333;BME280;11334;36.986;-121.936;2024-02-14T10:08:19;101370.25;;;10.88;100.00
22333;BME280;11334;36.986;-121.936;2024-02-14T10:10:46;101370.97;;;10.90;100.00
22333;BME280;11334;36.986;-121.936;2024-02-14T10:13:13;101369.53;;;10.95;100.00
22333;BME280;11334;36.986;-121.936;2024-02-14T10:15:39;101372.91;;;10.97;100.00
22333;BME280;11334;36.986;-121.936;2024-02-14T10:18:06;101365.47;;;11.01;100.00
22333;BME280;11334;36.986;-121.936;2024-02-14T10:20:35;101370.06;;;11.08;100.00
22333;BME280;11334;36.986;-121.936;2024-02-14T10:23:08;101372.28;;;11.12;100.00
22333;BME280;11334;36.986;-121.936;2024-02-14T10:25:37;101368.81;;;11.12;100.00
22333;BME280;11334;36.986;-121.936;2024-02-14T10:28:07;101362.53;;;11.03;100.00
22333;BME280;11334;36.986;-121.936;2024-02-14T10:30:37;101371.44;;;11.12;100.00
22333;BME280;11334;36.986;-121.936;2024-02-14T10:33:08;101368.34;;;11.16;100.00
22333;BME280;11334;36.986;-121.936;2024-02-14T10:35:35;101355.38;;;11.13;100.00
22333;BME280;11334;36.986;-121.936;2024-02-14T10:38:08;101341.72;;;11.08;100.00
22333;BME280;11334;36.986;-121.936;2024-02-14T10:40:38;101350.34;;;11.20;100.00
22333;BME280;11334;36.986;-121.936;2024-02-14T10:43:09;101353.53;;;11.23;100.00
22333;BME280;11334;36.986;-121.936;2024-02-14T10:45:36;101333.59;;;11.19;100.00
22333;BME280;11334;36.986;-121.936;2024-02-14T10:48:12;101333.69;;;11.27;100.00
22333;BME280;11334;36.986;-121.936;2024-02-14T10:50:41;101337.56;;;11.33;100.00
22333;BME280;11334;36.986;-121.936;2024-02-14T10:53:13;101337.44;;;11.34;100.00
22333;BME280;11334;36.986;-121.936;2024-02-14T10:55:47;101341.88;;;11.43;100.00
22333;BME280;11334;36.986;-121.936;2024-02-14T10:58:16;101345.22;;;11.45;100.00
22333;BME280;11334;36.986;-121.936;2024-02-14T11:00:44;101350.91;;;11.50;100.00
22333;BME280;11334;36.986;-121.936;2024-02-14T11:03:11;101353.97;;;11.55;100.00
22333;BME280;11334;36.986;-121.936;2024-02-14T11:05:47;101353.56;;;11.50;100.00
22333;BME280;11334;36.986;-121.936;2024-02-14T11:08:18;101343.91;;;11.49;100.00
22333;BME280;11334;36.986;-121.936;2024-02-14T11:10:56;101350.09;;;11.49;100.00
22333;BME280;11334;36.986;-121.936;2024-02-14T11:13:29;101348.34;;;11.58;100.00
22333;BME280;11334;36.986;-121.936;2024-02-14T11:16:01;101353.78;;;11.56;100.00
22333;BME280;11334;36.986;-121.936;2024-02-14T11:18:30;101351.53;;;11.61;100.00
22333;BME280;11334;36.986;-121.936;2024-02-14T11:20:57;101349.56;;;11.63;100.00
22333;BME280;11334;36.986;-121.936;2024-02-14T11:23:24;101348.13;;;11.68;100.00
22333;BME280;11334;36.986;-121.936;2024-02-14T11:25:50;101345.78;;;11.66;100.00
22333;BME280;11334;36.986;-121.936;2024-02-14T11:28:19;101346.19;;;11.70;100.00
22333;BME280;11334;36.986;-121.936;2024-02-14T11:30:51;101339.28;;;11.77;100.00
22333;BME280;11334;36.986;-121.936;2024-02-14T11:33:22;101341.56;;;11.72;100.00
22333;BME280;11334;36.986;-121.936;2024-02-14T11:35:50;101348.09;;;11.78;100.00
22333;BME280;11334;36.986;-121.936;2024-02-14T11:38:25;101339.97;;;11.79;100.00
22333;BME280;11334;36.986;-121.936;2024-02-14T11:40:54;101348.38;;;11.75;100.00
22333;BME280;11334;36.986;-121.936;2024-02-14T11:43:22;101355.97;;;11.70;100.00
22333;BME280;11334;36.986;-121.936;2024-02-14T11:45:49;101353.19;;;11.71;100.00
22333;BME280;11334;36.986;-121.936;2024-02-14T11:48:18;101364.41;;;11.83;100.00
22333;BME280;11334;36.986;-121.936;2024-02-14T11:50:52;101351.28;;;11.81;100.00
22333;BME280;11334;36.986;-121.936;2024-02-14T11:53:18;101353.78;;;11.83;100.00
22333;BME280;11334;36.986;-121.936;2024-02-14T11:55:45;101355.69;;;11.90;100.00
22333;BME280;11334;36.986;-121.936;2024-02-14T11:58:16;101372.16;;;11.94;100.00
22333;BME280;11334;36.986;-121.936;2024-02-14T12:00:44;101370.03;;;11.97;100.00
22333;BME280;11334;36.986;-121.936;2024-02-14T12:03:22;101362.59;;;12.00;100.00
22333;BME280;11334;36.986;-121.936;2024-02-14T12:05:50;101366.63;;;12.04;100.00
22333;BME280;11334;36.986;-121.936;2024-02-14T12:08:18;101369.59;;;12.01;100.00
22333;BME280;11334;36.986;-121.936;2024-02-14T12:10:45;101378.25;;;12.03;100.00
22333;BME280;11334;36.986;-121.936;2024-02-14T12:13:20;101374.22;;;11.99;100.00
22333;BME280;11334;36.986;-121.936;2024-02-14T12:15:48;101388.31;;;12.00;100.00
22333;BME280;11334;36.986;-121.936;2024-02-14T12:18:17;101386.22;;;12.03;100.00